sensor_id;sensor_type;location;lat;lon;timestamp;P1;durP1;ratioP1;P2;durP2;ratioP2
67344;SDS011;54230;52.402;6.276;2022-12-07T00:00:00;9.3;;;2.6;;
67344;SDS011;54230;52.402;6.276;2022-12-07T00:05:00;7.8;;;2.6;;
67344;SDS011;54230;52.402;6.276;2022-12-07T00:10:00;8.4;;;2.9;;
67344;SDS011;54230;52.402;6.276;2022-12-07T00:15:00;8.6;;;2.7;;
67344;SDS011;54230;52.402;6.276;2022-12-07T00:20:00;10.3;;;2.6;;
67344;SDS011;54230;52.402;6.276;2022-12-07T00:25:00;8.5;;;2.9;;
67344;SDS011;54230;52.402;6.276;2022-12-07T00:30:00;7.5;;;2.8;;
67344;SDS011;54230;52.402;6.276;2022-12-07T00:35:00;6.7;;;3.0;;
67344;SDS011;54230;52.402;6.276;2022-12-07T00:40:00;9.1;;;2.7;;
67344;SDS011;54230;52.402;6.276;2022-12-07T00:45:00;7.8;;;2.5;;
67344;SDS011;54230;52.402;6.276;2022-12-07T00:50:00;9.7;;;2.8;;
67344;SDS011;54230;52.402;6.276;2022-12-07T00:55:00;7.2;;;2.7;;
67344;SDS011;54230;52.402;6.276;2022-12-07T01:00:00;7.7;;;2.3;;
67344;SDS011;54230;52.402;6.276;2022-12-07T01:05:00;7.5;;;2.2;;
67344;SDS011;54230;52.402;6.276;2022-12-07T01:10:00;8.9;;;2.0;;
67344;SDS011;54230;52.402;6.276;2022-12-07T01:15:00;8.2;;;2.0;;
67344;SDS011;54230;52.402;6.276;2022-12-07T01:20:00;6.2;;;1.8;;
67344;SDS011;54230;52.402;6.276;2022-12-07T01:25:00;6.8;;;2.0;;
67344;SDS011;54230;52.402;6.276;2022-12-07T01:30:00;9.5;;;1.9;;
67344;SDS011;54230;52.402;6.276;2022-12-07T01:35:00;8.8;;;1.8;;
67344;SDS011;54230;52.402;6.276;2022-12-07T01:40:00;9.9;;;1.7;;
67344;SDS011;54230;52.402;6.276;2022-12-07T01:50:00;7.9;;;1.5;;
67344;SDS011;54230;52.402;6.276;2022-12-07T01:55:01;11.0;;;1.8;;
67344;SDS011;54230;52.402;6.276;2022-12-07T02:00:00;9.1;;;1.4;;
67344;SDS011;54230;52.402;6.276;2022-12-07T02:05:00;9.9;;;1.7;;
67344;SDS011;54230;52.402;6.276;2022-12-07T02:15:00;6.8;;;1.4;;
67344;SDS011;54230;52.402;6.276;2022-12-07T02:20:03;7.4;;;1.7;;
67344;SDS011;54230;52.402;6.276;2022-12-07T02:25:03;9.0;;;1.6;;
67344;SDS011;54230;52.402;6.276;2022-12-07T02:30:00;9.5;;;1.4;;
67344;SDS011;54230;52.402;6.276;2022-12-07T02:35:01;11.0;;;1.7;;
67344;SDS011;54230;52.402;6.276;2022-12-07T02:40:01;8.5;;;1.4;;
67344;SDS011;54230;52.402;6.276;2022-12-07T02:45:00;9.6;;;1.5;;
67344;SDS011;54230;52.402;6.276;2022-12-07T02:50:00;7.3;;;1.4;;
67344;SDS011;54230;52.402;6.276;2022-12-07T02:55:00;14.9;;;1.7;;
67344;SDS011;54230;52.402;6.276;2022-12-07T03:00:01;10.4;;;1.4;;
67344;SDS011;54230;52.402;6.276;2022-12-07T03:05:02;5.7;;;1.4;;
67344;SDS011;54230;52.402;6.276;2022-12-07T03:10:01;8.4;;;1.7;;
67344;SDS011;54230;52.402;6.276;2022-12-07T03:15:01;6.9;;;1.0;;
67344;SDS011;54230;52.402;6.276;2022-12-07T03:20:00;6.3;;;1.2;;
67344;SDS011;54230;52.402;6.276;2022-12-07T03:25:00;6.0;;;1.3;;
67344;SDS011;54230;52.402;6.276;2022-12-07T03:30:00;9.8;;;1.5;;
67344;SDS011;54230;52.402;6.276;2022-12-07T03:35:01;5.6;;;1.2;;
67344;SDS011;54230;52.402;6.276;2022-12-07T03:40:02;7.4;;;1.3;;
67344;SDS011;54230;52.402;6.276;2022-12-07T03:45:00;9.2;;;1.3;;
67344;SDS011;54230;52.402;6.276;2022-12-07T03:50:00;6.6;;;1.4;;
67344;SDS011;54230;52.402;6.276;2022-12-07T03:55:00;5.6;;;1.2;;
67344;SDS011;54230;52.402;6.276;2022-12-07T04:00:00;10.0;;;1.4;;
67344;SDS011;54230;52.402;6.276;2022-12-07T04:05:00;7.5;;;1.5;;
67344;SDS011;54230;52.402;6.276;2022-12-07T04:10:00;7.8;;;1.2;;
67344;SDS011;54230;52.402;6.276;2022-12-07T04:15:00;7.0;;;1.4;;
67344;SDS011;54230;52.402;6.276;2022-12-07T04:20:00;8.5;;;1.5;;
67344;SDS011;54230;52.402;6.276;2022-12-07T04:25:00;8.9;;;1.4;;
67344;SDS011;54230;52.402;6.276;2022-12-07T04:30:00;7.0;;;1.3;;
67344;SDS011;54230;52.402;6.276;2022-12-07T04:35:00;5.6;;;1.1;;
67344;SDS011;54230;52.402;6.276;2022-12-07T04:40:00;5.0;;;1.1;;
67344;SDS011;54230;52.402;6.276;2022-12-07T04:45:00;6.4;;;1.2;;
67344;SDS011;54230;52.402;6.276;2022-12-07T04:50:00;8.4;;;1.4;;
67344;SDS011;54230;52.402;6.276;2022-12-07T04:55:00;5.8;;;1.2;;
67344;SDS011;54230;52.402;6.276;2022-12-07T05:00:00;8.2;;;1.8;;
67344;SDS011;54230;52.402;6.276;2022-12-07T05:05:00;10.1;;;1.2;;
67344;SDS011;54230;52.402;6.276;2022-12-07T05:10:00;6.0;;;1.3;;
67344;SDS011;54230;52.402;6.276;2022-12-07T05:15:00;7.0;;;1.1;;
67344;SDS011;54230;52.402;6.276;2022-12-07T05:20:00;8.0;;;1.3;;
67344;SDS011;54230;52.402;6.276;2022-12-07T05:25:00;6.0;;;1.2;;
67344;SDS011;54230;52.402;6.276;2022-12-07T05:30:00;10.6;;;1.7;;
67344;SDS011;54230;52.402;6.276;2022-12-07T05:35:00;8.6;;;1.4;;
67344;SDS011;54230;52.402;6.276;2022-12-07T05:40:00;6.4;;;1.4;;
67344;SDS011;54230;52.402;6.276;2022-12-07T05:45:00;8.4;;;1.2;;
67344;SDS011;54230;52.402;6.276;2022-12-07T05:50:00;4.8;;;1.1;;
67344;SDS011;54230;52.402;6.276;2022-12-07T05:55:00;7.9;;;1.4;;
67344;SDS011;54230;52.402;6.276;2022-12-07T06:00:00;5.0;;;1.1;;
67344;SDS011;54230;52.402;6.276;2022-12-07T06:05:00;7.6;;;1.3;;
67344;SDS011;54230;52.402;6.276;2022-12-07T06:10:00;6.5;;;1.3;;
67344;SDS011;54230;52.402;6.276;2022-12-07T06:15:00;8.6;;;1.5;;
67344;SDS011;54230;52.402;6.276;2022-12-07T06:20:00;7.1;;;1.4;;
67344;SDS011;54230;52.402;6.276;2022-12-07T06:25:00;8.6;;;1.4;;
67344;SDS011;54230;52.402;6.276;2022-12-07T06:30:00;11.4;;;1.3;;
67344;SDS011;54230;52.402;6.276;2022-12-07T06:35:00;10.5;;;1.4;;
67344;SDS011;54230;52.402;6.276;2022-12-07T06:40:00;9.5;;;1.6;;
67344;SDS011;54230;52.402;6.276;2022-12-07T06:45:00;7.6;;;1.4;;
67344;SDS011;54230;52.402;6.276;2022-12-07T06:50:00;13.0;;;2.0;;
67344;SDS011;54230;52.402;6.276;2022-12-07T06:55:00;8.5;;;1.5;;
67344;SDS011;54230;52.402;6.276;2022-12-07T07:00:00;8.3;;;1.3;;
67344;SDS011;54230;52.402;6.276;2022-12-07T07:05:00;6.8;;;1.5;;
67344;SDS011;54230;52.402;6.276;2022-12-07T07:10:00;10.1;;;1.7;;
67344;SDS011;54230;52.402;6.276;2022-12-07T07:15:00;8.5;;;1.4;;
67344;SDS011;54230;52.402;6.276;2022-12-07T07:20:00;7.5;;;1.3;;
67344;SDS011;54230;52.402;6.276;2022-12-07T07:25:00;6.2;;;1.4;;
67344;SDS011;54230;52.402;6.276;2022-12-07T07:30:00;8.9;;;1.6;;
67344;SDS011;54230;52.402;6.276;2022-12-07T07:35:00;7.4;;;1.4;;
67344;SDS011;54230;52.402;6.276;2022-12-07T07:40:00;7.1;;;1.5;;
67344;SDS011;54230;52.402;6.276;2022-12-07T07:45:00;7.7;;;1.3;;
67344;SDS011;54230;52.402;6.276;2022-12-07T07:50:00;6.8;;;1.5;;
67344;SDS011;54230;52.402;6.276;2022-12-07T07:55:00;6.5;;;1.2;;
67344;SDS011;54230;52.402;6.276;2022-12-07T08:00:00;8.6;;;1.4;;
67344;SDS011;54230;52.402;6.276;2022-12-07T08:05:00;7.0;;;1.4;;
67344;SDS011;54230;52.402;6.276;2022-12-07T08:10:00;8.6;;;1.5;;
67344;SDS011;54230;52.402;6.276;2022-12-07T08:15:00;7.0;;;1.4;;
67344;SDS011;54230;52.402;6.276;2022-12-07T08:20:00;7.7;;;1.6;;
67344;SDS011;54230;52.402;6.276;2022-12-07T08:25:00;7.7;;;1.6;;
67344;SDS011;54230;52.402;6.276;2022-12-07T08:30:00;10.2;;;2.0;;
67344;SDS011;54230;52.402;6.276;2022-12-07T08:35:00;6.8;;;1.9;;
67344;SDS011;54230;52.402;6.276;2022-12-07T08:40:00;9.7;;;2.1;;
67344;SDS011;54230;52.402;6.276;2022-12-07T08:45:00;9.1;;;1.8;;
67344;SDS011;54230;52.402;6.276;2022-12-07T08:50:00;6.9;;;1.7;;
67344;SDS011;54230;52.402;6.276;2022-12-07T08:55:00;9.0;;;2.0;;
67344;SDS011;54230;52.402;6.276;2022-12-07T09:00:00;8.9;;;2.2;;
67344;SDS011;54230;52.402;6.276;2022-12-07T09:05:00;8.1;;;1.9;;
67344;SDS011;54230;52.402;6.276;2022-12-07T09:10:00;8.7;;;2.0;;
67344;SDS011;54230;52.402;6.276;2022-12-07T09:15:00;8.9;;;1.8;;
67344;SDS011;54230;52.402;6.276;2022-12-07T09:20:00;9.7;;;2.0;;
67344;SDS011;54230;52.402;6.276;2022-12-07T09:25:00;8.4;;;1.9;;
67344;SDS011;54230;52.402;6.276;2022-12-07T09:30:00;10.0;;;2.2;;
67344;SDS011;54230;52.402;6.276;2022-12-07T09:35:00;7.1;;;1.7;;
67344;SDS011;54230;52.402;6.276;2022-12-07T09:40:00;8.1;;;1.7;;
67344;SDS011;54230;52.402;6.276;2022-12-07T09:45:00;4.4;;;1.2;;
67344;SDS011;54230;52.402;6.276;2022-12-07T09:50:03;7.2;;;1.4;;
67344;SDS011;54230;52.402;6.276;2022-12-07T09:55:00;5.4;;;1.5;;
67344;SDS011;54230;52.402;6.276;2022-12-07T10:00:00;3.6;;;1.3;;
67344;SDS011;54230;52.402;6.276;2022-12-07T10:05:00;4.7;;;1.3;;
67344;SDS011;54230;52.402;6.276;2022-12-07T10:10:02;6.2;;;1.4;;
67344;SDS011;54230;52.402;6.276;2022-12-07T10:15:02;6.2;;;1.4;;
67344;SDS011;54230;52.402;6.276;2022-12-07T10:20:10;6.4;;;1.2;;
67344;SDS011;54230;52.402;6.276;2022-12-07T10:25:07;5.6;;;1.3;;
67344;SDS011;54230;52.402;6.276;2022-12-07T10:30:01;8.1;;;1.5;;
67344;SDS011;54230;52.402;6.276;2022-12-07T10:40:00;10.2;;;1.9;;
67344;SDS011;54230;52.402;6.276;2022-12-07T10:45:07;7.9;;;1.4;;
67344;SDS011;54230;52.402;6.276;2022-12-07T10:50:02;7.5;;;1.4;;
67344;SDS011;54230;52.402;6.276;2022-12-07T10:55:04;5.1;;;1.4;;
67344;SDS011;54230;52.402;6.276;2022-12-07T11:00:01;7.8;;;1.6;;
67344;SDS011;54230;52.402;6.276;2022-12-07T11:05:02;5.0;;;1.5;;
67344;SDS011;54230;52.402;6.276;2022-12-07T11:10:02;6.5;;;1.3;;
67344;SDS011;54230;52.402;6.276;2022-12-07T11:15:01;5.4;;;1.4;;
67344;SDS011;54230;52.402;6.276;2022-12-07T11:20:01;7.0;;;1.5;;
67344;SDS011;54230;52.402;6.276;2022-12-07T11:25:01;8.9;;;1.5;;
67344;SDS011;54230;52.402;6.276;2022-12-07T11:35:03;7.9;;;1.7;;
67344;SDS011;54230;52.402;6.276;2022-12-07T11:40:00;5.6;;;1.6;;
67344;SDS011;54230;52.402;6.276;2022-12-07T11:45:00;6.1;;;1.6;;
67344;SDS011;54230;52.402;6.276;2022-12-07T11:50:03;5.9;;;1.3;;
67344;SDS011;54230;52.402;6.276;2022-12-07T11:55:00;5.7;;;1.3;;
67344;SDS011;54230;52.402;6.276;2022-12-07T12:00:01;6.3;;;1.4;;
67344;SDS011;54230;52.402;6.276;2022-12-07T12:05:02;5.2;;;1.4;;
67344;SDS011;54230;52.402;6.276;2022-12-07T12:10:00;7.9;;;1.3;;
67344;SDS011;54230;52.402;6.276;2022-12-07T12:15:03;7.9;;;1.4;;
67344;SDS011;54230;52.402;6.276;2022-12-07T12:20:01;5.6;;;1.3;;
67344;SDS011;54230;52.402;6.276;2022-12-07T12:25:00;6.5;;;1.3;;
67344;SDS011;54230;52.402;6.276;2022-12-07T12:30:00;4.3;;;1.2;;
67344;SDS011;54230;52.402;6.276;2022-12-07T12:35:02;4.8;;;1.1;;
67344;SDS011;54230;52.402;6.276;2022-12-07T12:45:02;4.1;;;0.9;;
67344;SDS011;54230;52.402;6.276;2022-12-07T12:55:00;6.7;;;1.1;;
67344;SDS011;54230;52.402;6.276;2022-12-07T13:00:00;6.7;;;1.3;;
67344;SDS011;54230;52.402;6.276;2022-12-07T13:05:00;6.7;;;1.3;;
67344;SDS011;54230;52.402;6.276;2022-12-07T13:10:00;6.9;;;1.1;;
67344;SDS011;54230;52.402;6.276;2022-12-07T13:15:00;8.2;;;1.4;;
67344;SDS011;54230;52.402;6.276;2022-12-07T13:20:00;5.3;;;1.2;;
67344;SDS011;54230;52.402;6.276;2022-12-07T13:25:03;7.0;;;1.5;;
67344;SDS011;54230;52.402;6.276;2022-12-07T13:30:00;7.3;;;1.5;;
67344;SDS011;54230;52.402;6.276;2022-12-07T13:35:00;7.1;;;1.3;;
67344;SDS011;54230;52.402;6.276;2022-12-07T13:40:01;5.2;;;1.1;;
67344;SDS011;54230;52.402;6.276;2022-12-07T13:45:13;6.3;;;1.7;;
67344;SDS011;54230;52.402;6.276;2022-12-07T13:50:00;7.0;;;1.3;;
67344;SDS011;54230;52.402;6.276;2022-12-07T13:55:01;5.3;;;1.1;;
67344;SDS011;54230;52.402;6.276;2022-12-07T14:00:00;6.8;;;1.4;;
67344;SDS011;54230;52.402;6.276;2022-12-07T14:05:08;9.4;;;2.0;;
67344;SDS011;54230;52.402;6.276;2022-12-07T14:10:00;6.4;;;1.9;;
67344;SDS011;54230;52.402;6.276;2022-12-07T14:15:00;6.5;;;1.6;;
67344;SDS011;54230;52.402;6.276;2022-12-07T14:20:00;5.9;;;1.4;;
67344;SDS011;54230;52.402;6.276;2022-12-07T14:25:01;8.2;;;1.4;;
67344;SDS011;54230;52.402;6.276;2022-12-07T14:30:00;8.5;;;2.4;;
67344;SDS011;54230;52.402;6.276;2022-12-07T14:35:00;9.5;;;1.7;;
67344;SDS011;54230;52.402;6.276;2022-12-07T14:40:00;7.3;;;1.7;;
67344;SDS011;54230;52.402;6.276;2022-12-07T14:45:00;8.2;;;2.3;;
67344;SDS011;54230;52.402;6.276;2022-12-07T14:50:00;9.8;;;2.5;;
67344;SDS011;54230;52.402;6.276;2022-12-07T14:55:00;6.2;;;1.9;;
67344;SDS011;54230;52.402;6.276;2022-12-07T15:00:00;6.2;;;1.6;;
67344;SDS011;54230;52.402;6.276;2022-12-07T15:05:00;7.2;;;2.6;;
67344;SDS011;54230;52.402;6.276;2022-12-07T15:10:00;11.6;;;5.4;;
67344;SDS011;54230;52.402;6.276;2022-12-07T15:15:00;7.4;;;2.5;;
67344;SDS011;54230;52.402;6.276;2022-12-07T15:20:00;7.6;;;1.9;;
67344;SDS011;54230;52.402;6.276;2022-12-07T15:25:00;11.9;;;5.0;;
67344;SDS011;54230;52.402;6.276;2022-12-07T15:30:00;9.4;;;3.6;;
67344;SDS011;54230;52.402;6.276;2022-12-07T15:35:00;9.3;;;1.9;;
67344;SDS011;54230;52.402;6.276;2022-12-07T15:40:00;8.2;;;1.7;;
67344;SDS011;54230;52.402;6.276;2022-12-07T15:45:00;6.0;;;1.5;;
67344;SDS011;54230;52.402;6.276;2022-12-07T15:50:00;8.6;;;2.0;;
67344;SDS011;54230;52.402;6.276;2022-12-07T15:55:00;10.7;;;1.9;;
67344;SDS011;54230;52.402;6.276;2022-12-07T16:00:00;12.5;;;2.3;;
67344;SDS011;54230;52.402;6.276;2022-12-07T16:05:00;7.0;;;1.4;;
67344;SDS011;54230;52.402;6.276;2022-12-07T16:10:00;6.7;;;1.8;;
67344;SDS011;54230;52.402;6.276;2022-12-07T16:15:00;6.4;;;1.6;;
67344;SDS011;54230;52.402;6.276;2022-12-07T16:20:00;7.5;;;1.5;;
67344;SDS011;54230;52.402;6.276;2022-12-07T16:25:00;5.0;;;1.5;;
67344;SDS011;54230;52.402;6.276;2022-12-07T16:30:00;5.7;;;1.6;;
67344;SDS011;54230;52.402;6.276;2022-12-07T16:35:00;6.2;;;1.3;;
67344;SDS011;54230;52.402;6.276;2022-12-07T16:40:00;4.9;;;1.3;;
67344;SDS011;54230;52.402;6.276;2022-12-07T16:45:00;7.8;;;1.6;;
67344;SDS011;54230;52.402;6.276;2022-12-07T16:50:00;4.9;;;1.5;;
67344;SDS011;54230;52.402;6.276;2022-12-07T16:55:00;7.3;;;2.0;;
67344;SDS011;54230;52.402;6.276;2022-12-07T17:00:00;5.5;;;1.7;;
67344;SDS011;54230;52.402;6.276;2022-12-07T17:05:00;6.2;;;1.4;;
67344;SDS011;54230;52.402;6.276;2022-12-07T17:10:00;4.2;;;1.4;;
67344;SDS011;54230;52.402;6.276;2022-12-07T17:15:00;3.8;;;1.4;;
67344;SDS011;54230;52.402;6.276;2022-12-07T17:20:00;5.4;;;1.6;;
67344;SDS011;54230;52.402;6.276;2022-12-07T17:25:00;3.8;;;1.3;;
67344;SDS011;54230;52.402;6.276;2022-12-07T17:30:00;5.3;;;1.6;;
67344;SDS011;54230;52.402;6.276;2022-12-07T17:35:00;5.6;;;1.9;;
67344;SDS011;54230;52.402;6.276;2022-12-07T17:40:00;7.2;;;2.1;;
67344;SDS011;54230;52.402;6.276;2022-12-07T17:45:00;4.1;;;1.5;;
67344;SDS011;54230;52.402;6.276;2022-12-07T17:50:00;6.6;;;1.9;;
67344;SDS011;54230;52.402;6.276;2022-12-07T17:55:00;5.4;;;1.9;;
67344;SDS011;54230;52.402;6.276;2022-12-07T18:00:00;6.1;;;2.2;;
67344;SDS011;54230;52.402;6.276;2022-12-07T18:05:00;6.6;;;1.9;;
67344;SDS011;54230;52.402;6.276;2022-12-07T18:10:00;5.7;;;2.1;;
67344;SDS011;54230;52.402;6.276;2022-12-07T18:15:00;5.3;;;2.2;;
67344;SDS011;54230;52.402;6.276;2022-12-07T18:20:00;6.3;;;2.4;;
67344;SDS011;54230;52.402;6.276;2022-12-07T18:25:00;7.5;;;2.5;;
67344;SDS011;54230;52.402;6.276;2022-12-07T18:30:00;8.1;;;2.7;;
67344;SDS011;54230;52.402;6.276;2022-12-07T18:35:00;8.8;;;2.9;;
67344;SDS011;54230;52.402;6.276;2022-12-07T18:40:00;7.0;;;3.0;;
67344;SDS011;54230;52.402;6.276;2022-12-07T18:45:00;8.8;;;2.7;;
67344;SDS011;54230;52.402;6.276;2022-12-07T18:50:00;7.0;;;2.7;;
67344;SDS011;54230;52.402;6.276;2022-12-07T18:55:00;7.5;;;2.7;;
67344;SDS011;54230;52.402;6.276;2022-12-07T19:00:00;9.6;;;3.1;;
67344;SDS011;54230;52.402;6.276;2022-12-07T19:05:00;8.0;;;2.9;;
67344;SDS011;54230;52.402;6.276;2022-12-07T19:10:00;8.2;;;2.9;;
67344;SDS011;54230;52.402;6.276;2022-12-07T19:15:00;6.8;;;2.8;;
67344;SDS011;54230;52.402;6.276;2022-12-07T19:20:00;8.9;;;2.7;;
67344;SDS011;54230;52.402;6.276;2022-12-07T19:25:00;6.8;;;2.9;;
67344;SDS011;54230;52.402;6.276;2022-12-07T19:30:00;6.8;;;3.0;;
67344;SDS011;54230;52.402;6.276;2022-12-07T19:35:00;8.5;;;2.8;;
67344;SDS011;54230;52.402;6.276;2022-12-07T19:40:00;7.3;;;3.1;;
67344;SDS011;54230;52.402;6.276;2022-12-07T19:45:00;8.8;;;3.3;;
67344;SDS011;54230;52.402;6.276;2022-12-07T19:50:00;9.4;;;3.5;;
67344;SDS011;54230;52.402;6.276;2022-12-07T19:55:00;9.5;;;3.5;;
67344;SDS011;54230;52.402;6.276;2022-12-07T20:00:00;9.9;;;3.8;;
67344;SDS011;54230;52.402;6.276;2022-12-07T20:05:00;8.3;;;4.1;;
67344;SDS011;54230;52.402;6.276;2022-12-07T20:10:00;7.6;;;3.9;;
67344;SDS011;54230;52.402;6.276;2022-12-07T20:15:00;10.0;;;4.1;;
67344;SDS011;54230;52.402;6.276;2022-12-07T20:20:00;11.1;;;5.1;;
67344;SDS011;54230;52.402;6.276;2022-12-07T20:25:00;9.8;;;4.9;;
67344;SDS011;54230;52.402;6.276;2022-12-07T20:30:00;11.3;;;5.3;;
67344;SDS011;54230;52.402;6.276;2022-12-07T20:35:00;12.1;;;5.3;;
67344;SDS011;54230;52.402;6.276;2022-12-07T20:40:00;11.4;;;5.6;;
67344;SDS011;54230;52.402;6.276;2022-12-07T20:45:00;10.5;;;5.3;;
67344;SDS011;54230;52.402;6.276;2022-12-07T20:50:00;10.8;;;5.2;;
67344;SDS011;54230;52.402;6.276;2022-12-07T20:55:00;9.8;;;4.8;;
67344;SDS011;54230;52.402;6.276;2022-12-07T21:00:00;9.4;;;4.8;;
67344;SDS011;54230;52.402;6.276;2022-12-07T21:05:00;9.1;;;4.4;;
67344;SDS011;54230;52.402;6.276;2022-12-07T21:10:00;7.9;;;3.6;;
67344;SDS011;54230;52.402;6.276;2022-12-07T21:15:00;7.8;;;3.5;;
67344;SDS011;54230;52.402;6.276;2022-12-07T21:20:00;9.4;;;3.4;;
67344;SDS011;54230;52.402;6.276;2022-12-07T21:25:00;7.7;;;3.1;;
67344;SDS011;54230;52.402;6.276;2022-12-07T21:30:00;7.3;;;3.2;;
67344;SDS011;54230;52.402;6.276;2022-12-07T21:35:00;9.9;;;3.5;;
67344;SDS011;54230;52.402;6.276;2022-12-07T21:40:00;9.2;;;3.5;;
67344;SDS011;54230;52.402;6.276;2022-12-07T21:45:00;11.6;;;3.5;;
67344;SDS011;54230;52.402;6.276;2022-12-07T21:50:00;11.1;;;3.9;;
67344;SDS011;54230;52.402;6.276;2022-12-07T21:55:00;7.4;;;3.4;;
67344;SDS011;54230;52.402;6.276;2022-12-07T22:00:00;8.6;;;3.6;;
67344;SDS011;54230;52.402;6.276;2022-12-07T22:05:00;7.8;;;3.5;;
67344;SDS011;54230;52.402;6.276;2022-12-07T22:10:00;7.7;;;3.3;;
67344;SDS011;54230;52.402;6.276;2022-12-07T22:15:00;8.9;;;3.1;;
67344;SDS011;54230;52.402;6.276;2022-12-07T22:20:00;7.1;;;3.1;;
67344;SDS011;54230;52.402;6.276;2022-12-07T22:25:00;7.6;;;3.1;;
67344;SDS011;54230;52.402;6.276;2022-12-07T22:30:00;6.1;;;2.8;;
67344;SDS011;54230;52.402;6.276;2022-12-07T22:35:00;6.0;;;3.0;;
67344;SDS011;54230;52.402;6.276;2022-12-07T22:40:00;7.2;;;3.1;;
67344;SDS011;54230;52.402;6.276;2022-12-07T22:45:00;8.4;;;3.1;;
67344;SDS011;54230;52.402;6.276;2022-12-07T22:50:00;9.4;;;3.3;;
67344;SDS011;54230;52.402;6.276;2022-12-07T22:55:00;8.8;;;3.5;;
67344;SDS011;54230;52.402;6.276;2022-12-07T23:00:00;8.2;;;3.4;;
67344;SDS011;54230;52.402;6.276;2022-12-07T23:05:00;8.9;;;3.4;;
67344;SDS011;54230;52.402;6.276;2022-12-07T23:10:00;9.6;;;4.4;;
67344;SDS011;54230;52.402;6.276;2022-12-07T23:15:00;14.4;;;4.2;;
67344;SDS011;54230;52.402;6.276;2022-12-07T23:20:00;10.9;;;5.2;;
67344;SDS011;54230;52.402;6.276;2022-12-07T23:25:00;11.9;;;5.7;;
67344;SDS011;54230;52.402;6.276;2022-12-07T23:30:00;13.6;;;6.8;;
67344;SDS011;54230;52.402;6.276;2022-12-07T23:35:00;14.2;;;7.7;;
67344;SDS011;54230;52.402;6.276;2022-12-07T23:40:00;14.7;;;7.2;;
67344;SDS011;54230;52.402;6.276;2022-12-07T23:45:00;15.1;;;8.4;;
67344;SDS011;54230;52.402;6.276;2022-12-07T23:50:00;17.1;;;8.6;;
67344;SDS011;54230;52.402;6.276;2022-12-07T23:55:00;19.7;;;10.0;;
